Hovedside
METAR-TAF:

METAR-TAF

Lufthavner :

Bromma lufthavn

Stockholm, Sverige

breddegrad: 59-21N, lengdegrad: 017-57E, høyde over havet: 14 m

Gjeldene værobservasjon

Denne rapporten ble laget for 33 minutter siden, klokken 14:50 UTC
Vind 6 kt fra Øst, skiftende mellom Øst-nordøst og Sørøst
Temperatur 24°C
Luftfuktighet 50%
Trykk 1018 hPa
Sikt 10 km eller mer
ingen skyer under 1500 m og ingen bygeskyer

METAR: ESSB 241450Z 10006KT 060V130 CAVOK 24/13 Q1018

Tid: 17:23 (15:23 UTC)

Varsel

Denne rapporten ble laget for 53 minutter siden, klokken 14:30 UTC
Varsel gyldig fra 24. klokken 15 UTC til 24. klokken 21 UTC
Vind 3 kt fra skiftende retning
Sikt 10 km eller mer
ingen skyer under 1500 m og ingen bygeskyer

TAF: ESSB 241430Z 2415/2421 VRB03KT CAVOK

Værobservasjoner og værvarsel for over 4000 flyplasser (METAR- og TAF-rapporter).

Tilgjengelige stasjoner er representert av de røde og gule prikkene på kartet.

Hold musepekeren over prikken for å se navnet på stasjonen.

Klikk så for å se værobservasjoner og -varsler.

For å forandre kartet kan du klikke på den grønne knappen med svart kryss for å zoome inn, på den grønne knappen med strek for å zoome ut, eller på de grønne pilene for å se tilstøtende kart.


METAR-TAF: